sensor_id;sensor_type;location;lat;lon;timestamp;P1;durP1;ratioP1;P2;durP2;ratioP2
20727;SDS011;10525;50.154;8.198;2023-02-28T00:00:23;2.60;;;2.50;;
20727;SDS011;10525;50.154;8.198;2023-02-28T00:02:50;4.00;;;2.30;;
20727;SDS011;10525;50.154;8.198;2023-02-28T00:05:18;2.27;;;2.23;;
20727;SDS011;10525;50.154;8.198;2023-02-28T00:07:46;2.23;;;2.20;;
20727;SDS011;10525;50.154;8.198;2023-02-28T00:10:16;2.43;;;2.23;;
20727;SDS011;10525;50.154;8.198;2023-02-28T00:12:45;2.53;;;2.43;;
20727;SDS011;10525;50.154;8.198;2023-02-28T00:15:12;2.67;;;2.47;;
20727;SDS011;10525;50.154;8.198;2023-02-28T00:17:39;2.60;;;2.10;;
20727;SDS011;10525;50.154;8.198;2023-02-28T00:20:06;2.50;;;2.37;;
20727;SDS011;10525;50.154;8.198;2023-02-28T00:22:35;3.57;;;2.27;;
20727;SDS011;10525;50.154;8.198;2023-02-28T00:25:03;2.90;;;2.80;;
20727;SDS011;10525;50.154;8.198;2023-02-28T00:27:33;2.80;;;2.60;;
20727;SDS011;10525;50.154;8.198;2023-02-28T00:30:00;2.70;;;2.50;;
20727;SDS011;10525;50.154;8.198;2023-02-28T00:32:27;2.57;;;2.47;;
20727;SDS011;10525;50.154;8.198;2023-02-28T00:34:54;2.57;;;2.47;;
20727;SDS011;10525;50.154;8.198;2023-02-28T00:37:21;3.23;;;2.53;;
20727;SDS011;10525;50.154;8.198;2023-02-28T00:39:48;2.40;;;2.30;;
20727;SDS011;10525;50.154;8.198;2023-02-28T00:42:14;5.50;;;2.67;;
20727;SDS011;10525;50.154;8.198;2023-02-28T00:44:42;3.00;;;2.70;;
20727;SDS011;10525;50.154;8.198;2023-02-28T00:47:09;2.77;;;2.63;;
20727;SDS011;10525;50.154;8.198;2023-02-28T00:49:36;2.50;;;2.40;;
20727;SDS011;10525;50.154;8.198;2023-02-28T00:52:02;3.10;;;2.40;;
20727;SDS011;10525;50.154;8.198;2023-02-28T00:54:31;4.17;;;2.60;;
20727;SDS011;10525;50.154;8.198;2023-02-28T00:56:58;3.10;;;2.53;;
20727;SDS011;10525;50.154;8.198;2023-02-28T00:59:24;2.93;;;2.67;;
20727;SDS011;10525;50.154;8.198;2023-02-28T01:01:53;2.90;;;2.60;;
20727;SDS011;10525;50.154;8.198;2023-02-28T01:04:19;2.10;;;2.00;;
20727;SDS011;10525;50.154;8.198;2023-02-28T01:06:46;2.80;;;2.67;;
20727;SDS011;10525;50.154;8.198;2023-02-28T01:09:13;3.37;;;2.77;;
20727;SDS011;10525;50.154;8.198;2023-02-28T01:11:39;6.50;;;2.70;;
20727;SDS011;10525;50.154;8.198;2023-02-28T01:14:10;5.93;;;3.13;;
20727;SDS011;10525;50.154;8.198;2023-02-28T01:16:39;2.97;;;2.80;;
20727;SDS011;10525;50.154;8.198;2023-02-28T01:19:07;4.50;;;3.20;;
20727;SDS011;10525;50.154;8.198;2023-02-28T01:21:34;4.63;;;3.17;;
20727;SDS011;10525;50.154;8.198;2023-02-28T01:24:01;2.90;;;2.70;;
20727;SDS011;10525;50.154;8.198;2023-02-28T01:26:28;3.40;;;2.87;;
20727;SDS011;10525;50.154;8.198;2023-02-28T01:28:55;4.13;;;3.13;;
20727;SDS011;10525;50.154;8.198;2023-02-28T01:31:22;4.60;;;3.20;;
20727;SDS011;10525;50.154;8.198;2023-02-28T01:33:49;3.57;;;3.37;;
20727;SDS011;10525;50.154;8.198;2023-02-28T01:36:18;3.30;;;3.00;;
20727;SDS011;10525;50.154;8.198;2023-02-28T01:38:46;3.20;;;2.90;;
20727;SDS011;10525;50.154;8.198;2023-02-28T01:41:15;3.30;;;3.00;;
20727;SDS011;10525;50.154;8.198;2023-02-28T01:43:53;2.93;;;2.73;;
20727;SDS011;10525;50.154;8.198;2023-02-28T01:46:22;3.63;;;3.33;;
20727;SDS011;10525;50.154;8.198;2023-02-28T01:48:50;3.80;;;3.50;;
20727;SDS011;10525;50.154;8.198;2023-02-28T01:51:22;3.20;;;3.00;;
20727;SDS011;10525;50.154;8.198;2023-02-28T01:53:53;3.10;;;2.90;;
20727;SDS011;10525;50.154;8.198;2023-02-28T01:56:22;3.50;;;3.23;;
20727;SDS011;10525;50.154;8.198;2023-02-28T01:58:53;3.57;;;3.27;;
20727;SDS011;10525;50.154;8.198;2023-02-28T02:01:21;3.83;;;3.40;;
20727;SDS011;10525;50.154;8.198;2023-02-28T02:03:49;4.50;;;4.20;;
20727;SDS011;10525;50.154;8.198;2023-02-28T02:06:22;4.03;;;3.73;;
20727;SDS011;10525;50.154;8.198;2023-02-28T02:08:49;5.57;;;3.47;;
20727;SDS011;10525;50.154;8.198;2023-02-28T02:11:17;4.57;;;3.80;;
20727;SDS011;10525;50.154;8.198;2023-02-28T02:13:51;4.47;;;4.10;;
20727;SDS011;10525;50.154;8.198;2023-02-28T02:16:34;6.47;;;4.17;;
20727;SDS011;10525;50.154;8.198;2023-02-28T02:19:13;4.47;;;3.90;;
20727;SDS011;10525;50.154;8.198;2023-02-28T02:24:58;4.70;;;4.30;;
20727;SDS011;10525;50.154;8.198;2023-02-28T02:27:39;4.60;;;4.20;;
20727;SDS011;10525;50.154;8.198;2023-02-28T02:36:37;5.23;;;4.83;;
20727;SDS011;10525;50.154;8.198;2023-02-28T02:39:07;4.53;;;4.03;;
20727;SDS011;10525;50.154;8.198;2023-02-28T02:41:44;11.07;;;4.60;;
20727;SDS011;10525;50.154;8.198;2023-02-28T02:44:15;5.73;;;4.73;;
20727;SDS011;10525;50.154;8.198;2023-02-28T02:46:47;6.20;;;4.47;;
20727;SDS011;10525;50.154;8.198;2023-02-28T02:49:18;4.13;;;3.77;;
20727;SDS011;10525;50.154;8.198;2023-02-28T02:51:48;6.23;;;4.17;;
20727;SDS011;10525;50.154;8.198;2023-02-28T02:54:17;5.13;;;4.63;;
20727;SDS011;10525;50.154;8.198;2023-02-28T02:56:48;9.67;;;4.73;;
20727;SDS011;10525;50.154;8.198;2023-02-28T02:59:18;3.83;;;3.63;;
20727;SDS011;10525;50.154;8.198;2023-02-28T03:01:47;5.03;;;4.10;;
20727;SDS011;10525;50.154;8.198;2023-02-28T03:04:16;5.70;;;4.13;;
20727;SDS011;10525;50.154;8.198;2023-02-28T03:06:46;4.53;;;4.13;;
20727;SDS011;10525;50.154;8.198;2023-02-28T03:09:14;4.73;;;4.07;;
20727;SDS011;10525;50.154;8.198;2023-02-28T03:11:41;5.63;;;4.07;;
20727;SDS011;10525;50.154;8.198;2023-02-28T03:14:17;6.87;;;4.83;;
20727;SDS011;10525;50.154;8.198;2023-02-28T03:16:57;4.70;;;4.30;;
20727;SDS011;10525;50.154;8.198;2023-02-28T03:19:37;5.53;;;4.23;;
20727;SDS011;10525;50.154;8.198;2023-02-28T03:22:14;10.10;;;4.83;;
20727;SDS011;10525;50.154;8.198;2023-02-28T03:24:54;8.13;;;4.30;;
20727;SDS011;10525;50.154;8.198;2023-02-28T03:27:29;6.03;;;5.23;;
20727;SDS011;10525;50.154;8.198;2023-02-28T03:29:58;6.03;;;5.37;;
20727;SDS011;10525;50.154;8.198;2023-02-28T03:32:29;6.33;;;4.83;;
20727;SDS011;10525;50.154;8.198;2023-02-28T03:35:01;5.27;;;4.30;;
20727;SDS011;10525;50.154;8.198;2023-02-28T03:37:32;5.83;;;5.10;;
20727;SDS011;10525;50.154;8.198;2023-02-28T03:40:03;6.83;;;4.60;;
20727;SDS011;10525;50.154;8.198;2023-02-28T03:42:34;9.63;;;4.57;;
20727;SDS011;10525;50.154;8.198;2023-02-28T03:45:04;9.57;;;5.63;;
20727;SDS011;10525;50.154;8.198;2023-02-28T03:47:35;6.63;;;5.10;;
20727;SDS011;10525;50.154;8.198;2023-02-28T03:50:06;11.17;;;5.20;;
20727;SDS011;10525;50.154;8.198;2023-02-28T03:52:38;5.67;;;5.07;;
20727;SDS011;10525;50.154;8.198;2023-02-28T03:55:11;7.40;;;4.50;;
20727;SDS011;10525;50.154;8.198;2023-02-28T03:57:40;11.17;;;5.27;;
20727;SDS011;10525;50.154;8.198;2023-02-28T04:00:14;5.53;;;5.00;;
20727;SDS011;10525;50.154;8.198;2023-02-28T04:02:44;7.20;;;5.07;;
20727;SDS011;10525;50.154;8.198;2023-02-28T04:05:11;5.97;;;4.67;;
20727;SDS011;10525;50.154;8.198;2023-02-28T04:07:37;5.47;;;4.97;;
20727;SDS011;10525;50.154;8.198;2023-02-28T04:10:04;7.33;;;5.20;;
20727;SDS011;10525;50.154;8.198;2023-02-28T04:12:33;5.57;;;4.93;;
20727;SDS011;10525;50.154;8.198;2023-02-28T04:15:00;7.87;;;5.73;;
20727;SDS011;10525;50.154;8.198;2023-02-28T04:17:27;5.97;;;5.27;;
20727;SDS011;10525;50.154;8.198;2023-02-28T04:19:54;10.77;;;5.50;;
20727;SDS011;10525;50.154;8.198;2023-02-28T04:22:22;5.60;;;5.00;;
20727;SDS011;10525;50.154;8.198;2023-02-28T04:24:51;6.37;;;5.10;;
20727;SDS011;10525;50.154;8.198;2023-02-28T04:27:19;6.00;;;4.43;;
20727;SDS011;10525;50.154;8.198;2023-02-28T04:29:47;6.40;;;4.83;;
20727;SDS011;10525;50.154;8.198;2023-02-28T04:32:14;9.23;;;4.67;;
20727;SDS011;10525;50.154;8.198;2023-02-28T04:34:41;8.27;;;4.33;;
20727;SDS011;10525;50.154;8.198;2023-02-28T04:37:07;8.53;;;5.30;;
20727;SDS011;10525;50.154;8.198;2023-02-28T04:39:34;4.70;;;4.27;;
20727;SDS011;10525;50.154;8.198;2023-02-28T04:42:02;6.10;;;5.50;;
20727;SDS011;10525;50.154;8.198;2023-02-28T04:44:29;12.90;;;5.87;;
20727;SDS011;10525;50.154;8.198;2023-02-28T04:46:57;5.73;;;5.10;;
20727;SDS011;10525;50.154;8.198;2023-02-28T04:49:23;6.33;;;4.77;;
20727;SDS011;10525;50.154;8.198;2023-02-28T04:51:50;7.97;;;5.13;;
20727;SDS011;10525;50.154;8.198;2023-02-28T04:54:17;6.67;;;5.83;;
20727;SDS011;10525;50.154;8.198;2023-02-28T04:56:44;5.40;;;4.30;;
20727;SDS011;10525;50.154;8.198;2023-02-28T04:59:11;4.43;;;4.13;;
20727;SDS011;10525;50.154;8.198;2023-02-28T05:01:37;5.47;;;4.50;;
20727;SDS011;10525;50.154;8.198;2023-02-28T05:04:05;4.40;;;3.93;;
20727;SDS011;10525;50.154;8.198;2023-02-28T05:06:32;6.93;;;5.03;;
20727;SDS011;10525;50.154;8.198;2023-02-28T05:08:59;10.53;;;5.93;;
20727;SDS011;10525;50.154;8.198;2023-02-28T05:11:28;6.30;;;5.50;;
20727;SDS011;10525;50.154;8.198;2023-02-28T05:13:59;9.27;;;5.43;;
20727;SDS011;10525;50.154;8.198;2023-02-28T05:16:27;8.77;;;4.97;;
20727;SDS011;10525;50.154;8.198;2023-02-28T05:18:53;8.47;;;5.37;;
20727;SDS011;10525;50.154;8.198;2023-02-28T05:21:25;6.10;;;5.17;;
20727;SDS011;10525;50.154;8.198;2023-02-28T05:23:54;6.63;;;5.10;;
20727;SDS011;10525;50.154;8.198;2023-02-28T05:26:22;9.67;;;5.93;;
20727;SDS011;10525;50.154;8.198;2023-02-28T05:28:49;8.90;;;5.40;;
20727;SDS011;10525;50.154;8.198;2023-02-28T05:31:16;13.97;;;5.87;;
20727;SDS011;10525;50.154;8.198;2023-02-28T05:33:43;7.23;;;5.60;;
20727;SDS011;10525;50.154;8.198;2023-02-28T05:36:09;7.77;;;6.17;;
20727;SDS011;10525;50.154;8.198;2023-02-28T05:38:37;8.17;;;4.80;;
20727;SDS011;10525;50.154;8.198;2023-02-28T05:41:05;6.43;;;5.23;;
20727;SDS011;10525;50.154;8.198;2023-02-28T05:43:33;6.70;;;4.80;;
20727;SDS011;10525;50.154;8.198;2023-02-28T05:46:02;10.07;;;5.10;;
20727;SDS011;10525;50.154;8.198;2023-02-28T05:48:30;7.50;;;5.83;;
20727;SDS011;10525;50.154;8.198;2023-02-28T05:50:57;11.73;;;5.50;;
20727;SDS011;10525;50.154;8.198;2023-02-28T05:53:24;5.63;;;5.13;;
20727;SDS011;10525;50.154;8.198;2023-02-28T05:55:52;6.87;;;4.77;;
20727;SDS011;10525;50.154;8.198;2023-02-28T05:58:19;10.20;;;5.03;;
20727;SDS011;10525;50.154;8.198;2023-02-28T06:00:46;6.90;;;5.07;;
20727;SDS011;10525;50.154;8.198;2023-02-28T06:03:14;6.53;;;5.17;;
20727;SDS011;10525;50.154;8.198;2023-02-28T06:05:41;9.80;;;4.90;;
20727;SDS011;10525;50.154;8.198;2023-02-28T06:08:07;10.23;;;5.23;;
20727;SDS011;10525;50.154;8.198;2023-02-28T06:10:34;5.43;;;4.60;;
20727;SDS011;10525;50.154;8.198;2023-02-28T06:13:03;7.80;;;4.70;;
20727;SDS011;10525;50.154;8.198;2023-02-28T06:15:30;6.67;;;4.90;;
20727;SDS011;10525;50.154;8.198;2023-02-28T06:17:57;6.03;;;4.90;;
20727;SDS011;10525;50.154;8.198;2023-02-28T06:20:25;6.27;;;4.80;;
20727;SDS011;10525;50.154;8.198;2023-02-28T06:22:54;4.40;;;4.00;;
20727;SDS011;10525;50.154;8.198;2023-02-28T06:25:21;5.83;;;4.73;;
20727;SDS011;10525;50.154;8.198;2023-02-28T06:27:48;5.87;;;4.63;;
20727;SDS011;10525;50.154;8.198;2023-02-28T06:30:16;8.07;;;4.67;;
20727;SDS011;10525;50.154;8.198;2023-02-28T06:32:43;7.63;;;4.80;;
20727;SDS011;10525;50.154;8.198;2023-02-28T06:35:09;4.90;;;4.30;;
20727;SDS011;10525;50.154;8.198;2023-02-28T06:37:36;4.27;;;3.90;;
20727;SDS011;10525;50.154;8.198;2023-02-28T06:40:03;6.53;;;4.43;;
20727;SDS011;10525;50.154;8.198;2023-02-28T06:42:31;4.87;;;4.47;;
20727;SDS011;10525;50.154;8.198;2023-02-28T06:44:58;5.40;;;4.10;;
20727;SDS011;10525;50.154;8.198;2023-02-28T06:47:26;6.07;;;3.90;;
20727;SDS011;10525;50.154;8.198;2023-02-28T06:49:53;4.60;;;4.10;;
20727;SDS011;10525;50.154;8.198;2023-02-28T06:52:19;4.83;;;3.73;;
20727;SDS011;10525;50.154;8.198;2023-02-28T06:54:47;4.80;;;4.20;;
20727;SDS011;10525;50.154;8.198;2023-02-28T06:57:24;4.73;;;3.77;;
20727;SDS011;10525;50.154;8.198;2023-02-28T06:59:51;4.50;;;4.03;;
20727;SDS011;10525;50.154;8.198;2023-02-28T07:02:18;4.80;;;4.27;;
20727;SDS011;10525;50.154;8.198;2023-02-28T07:04:45;4.23;;;3.93;;
20727;SDS011;10525;50.154;8.198;2023-02-28T07:07:12;4.80;;;4.30;;
20727;SDS011;10525;50.154;8.198;2023-02-28T07:09:39;5.70;;;4.03;;
20727;SDS011;10525;50.154;8.198;2023-02-28T07:12:06;4.87;;;4.07;;
20727;SDS011;10525;50.154;8.198;2023-02-28T07:14:32;8.07;;;4.33;;
20727;SDS011;10525;50.154;8.198;2023-02-28T07:16:59;5.13;;;4.03;;
20727;SDS011;10525;50.154;8.198;2023-02-28T07:19:26;5.13;;;3.93;;
20727;SDS011;10525;50.154;8.198;2023-02-28T07:21:54;4.43;;;4.03;;
20727;SDS011;10525;50.154;8.198;2023-02-28T07:24:21;4.23;;;3.93;;
20727;SDS011;10525;50.154;8.198;2023-02-28T07:26:50;4.73;;;3.73;;
20727;SDS011;10525;50.154;8.198;2023-02-28T07:29:17;6.33;;;3.77;;
20727;SDS011;10525;50.154;8.198;2023-02-28T07:31:44;9.20;;;3.50;;
20727;SDS011;10525;50.154;8.198;2023-02-28T07:34:11;5.83;;;3.97;;
20727;SDS011;10525;50.154;8.198;2023-02-28T07:36:38;3.97;;;3.57;;
20727;SDS011;10525;50.154;8.198;2023-02-28T07:39:06;6.00;;;4.60;;
20727;SDS011;10525;50.154;8.198;2023-02-28T07:41:34;5.10;;;3.60;;
20727;SDS011;10525;50.154;8.198;2023-02-28T07:44:04;4.10;;;3.40;;
20727;SDS011;10525;50.154;8.198;2023-02-28T07:46:31;4.13;;;3.50;;
20727;SDS011;10525;50.154;8.198;2023-02-28T07:49:00;7.17;;;4.17;;
20727;SDS011;10525;50.154;8.198;2023-02-28T07:51:28;4.33;;;3.67;;
20727;SDS011;10525;50.154;8.198;2023-02-28T07:53:55;4.17;;;3.87;;
20727;SDS011;10525;50.154;8.198;2023-02-28T07:56:23;5.50;;;3.90;;
20727;SDS011;10525;50.154;8.198;2023-02-28T07:58:50;6.27;;;4.60;;
20727;SDS011;10525;50.154;8.198;2023-02-28T08:01:16;4.97;;;4.53;;
20727;SDS011;10525;50.154;8.198;2023-02-28T08:03:44;6.20;;;4.20;;
20727;SDS011;10525;50.154;8.198;2023-02-28T08:06:15;5.87;;;3.23;;
20727;SDS011;10525;50.154;8.198;2023-02-28T08:08:43;4.13;;;3.83;;
20727;SDS011;10525;50.154;8.198;2023-02-28T08:11:10;4.47;;;4.03;;
20727;SDS011;10525;50.154;8.198;2023-02-28T08:13:38;6.63;;;4.37;;
20727;SDS011;10525;50.154;8.198;2023-02-28T08:16:05;4.30;;;3.97;;
20727;SDS011;10525;50.154;8.198;2023-02-28T08:18:32;4.00;;;3.70;;
20727;SDS011;10525;50.154;8.198;2023-02-28T08:21:05;5.77;;;3.97;;
20727;SDS011;10525;50.154;8.198;2023-02-28T08:23:32;3.23;;;2.80;;
20727;SDS011;10525;50.154;8.198;2023-02-28T08:26:00;4.10;;;3.37;;
20727;SDS011;10525;50.154;8.198;2023-02-28T08:28:26;5.27;;;3.80;;
20727;SDS011;10525;50.154;8.198;2023-02-28T08:30:54;5.70;;;4.20;;
20727;SDS011;10525;50.154;8.198;2023-02-28T08:33:21;4.70;;;3.53;;
20727;SDS011;10525;50.154;8.198;2023-02-28T08:35:48;3.40;;;3.20;;
20727;SDS011;10525;50.154;8.198;2023-02-28T08:38:18;3.87;;;2.97;;
20727;SDS011;10525;50.154;8.198;2023-02-28T08:40:45;3.07;;;2.87;;
20727;SDS011;10525;50.154;8.198;2023-02-28T08:43:11;3.93;;;3.37;;
20727;SDS011;10525;50.154;8.198;2023-02-28T08:45:38;3.80;;;3.50;;
20727;SDS011;10525;50.154;8.198;2023-02-28T08:48:06;3.83;;;2.70;;
20727;SDS011;10525;50.154;8.198;2023-02-28T08:50:33;3.17;;;2.40;;
20727;SDS011;10525;50.154;8.198;2023-02-28T08:53:00;2.40;;;2.20;;
20727;SDS011;10525;50.154;8.198;2023-02-28T08:55:26;2.77;;;2.57;;
20727;SDS011;10525;50.154;8.198;2023-02-28T08:57:53;5.47;;;2.00;;
20727;SDS011;10525;50.154;8.198;2023-02-28T09:00:20;3.37;;;2.37;;
20727;SDS011;10525;50.154;8.198;2023-02-28T09:02:48;2.60;;;2.50;;
20727;SDS011;10525;50.154;8.198;2023-02-28T09:05:16;3.27;;;2.67;;
20727;SDS011;10525;50.154;8.198;2023-02-28T09:07:42;3.13;;;2.80;;
20727;SDS011;10525;50.154;8.198;2023-02-28T09:10:09;4.03;;;2.97;;
20727;SDS011;10525;50.154;8.198;2023-02-28T09:12:36;11.50;;;2.90;;
20727;SDS011;10525;50.154;8.198;2023-02-28T09:15:03;3.00;;;2.70;;
20727;SDS011;10525;50.154;8.198;2023-02-28T09:17:31;4.03;;;2.60;;
20727;SDS011;10525;50.154;8.198;2023-02-28T09:19:58;3.00;;;2.80;;
20727;SDS011;10525;50.154;8.198;2023-02-28T09:22:25;3.50;;;3.20;;
20727;SDS011;10525;50.154;8.198;2023-02-28T09:24:52;3.00;;;2.80;;
20727;SDS011;10525;50.154;8.198;2023-02-28T09:27:19;3.63;;;2.90;;
20727;SDS011;10525;50.154;8.198;2023-02-28T09:29:45;3.00;;;2.70;;
20727;SDS011;10525;50.154;8.198;2023-02-28T09:32:12;2.53;;;2.43;;
20727;SDS011;10525;50.154;8.198;2023-02-28T09:34:39;3.70;;;3.37;;
20727;SDS011;10525;50.154;8.198;2023-02-28T09:37:06;3.93;;;3.27;;
20727;SDS011;10525;50.154;8.198;2023-02-28T09:39:34;2.93;;;2.73;;
20727;SDS011;10525;50.154;8.198;2023-02-28T09:42:00;3.53;;;3.23;;
20727;SDS011;10525;50.154;8.198;2023-02-28T09:44:30;2.33;;;2.27;;
20727;SDS011;10525;50.154;8.198;2023-02-28T09:47:01;3.30;;;3.00;;
20727;SDS011;10525;50.154;8.198;2023-02-28T09:49:35;7.27;;;2.97;;
20727;SDS011;10525;50.154;8.198;2023-02-28T09:52:07;4.17;;;2.63;;
20727;SDS011;10525;50.154;8.198;2023-02-28T09:54:37;3.47;;;2.87;;
20727;SDS011;10525;50.154;8.198;2023-02-28T09:57:06;2.83;;;2.73;;
20727;SDS011;10525;50.154;8.198;2023-02-28T09:59:41;6.43;;;2.90;;
20727;SDS011;10525;50.154;8.198;2023-02-28T10:02:19;2.83;;;2.63;;
20727;SDS011;10525;50.154;8.198;2023-02-28T10:04:58;2.97;;;2.77;;
20727;SDS011;10525;50.154;8.198;2023-02-28T10:07:33;3.23;;;2.93;;
20727;SDS011;10525;50.154;8.198;2023-02-28T10:12:47;3.13;;;2.83;;
20727;SDS011;10525;50.154;8.198;2023-02-28T10:15:18;3.17;;;2.93;;
20727;SDS011;10525;50.154;8.198;2023-02-28T10:17:49;3.83;;;3.53;;
20727;SDS011;10525;50.154;8.198;2023-02-28T10:20:20;5.97;;;3.30;;
20727;SDS011;10525;50.154;8.198;2023-02-28T10:22:56;3.10;;;2.90;;
20727;SDS011;10525;50.154;8.198;2023-02-28T10:25:27;5.20;;;3.63;;
20727;SDS011;10525;50.154;8.198;2023-02-28T10:27:55;4.33;;;3.27;;
20727;SDS011;10525;50.154;8.198;2023-02-28T10:30:27;3.50;;;3.17;;
20727;SDS011;10525;50.154;8.198;2023-02-28T10:32:54;4.30;;;3.27;;
20727;SDS011;10525;50.154;8.198;2023-02-28T10:35:21;7.20;;;3.30;;
20727;SDS011;10525;50.154;8.198;2023-02-28T10:37:50;4.00;;;3.63;;
20727;SDS011;10525;50.154;8.198;2023-02-28T10:40:28;5.70;;;3.80;;
20727;SDS011;10525;50.154;8.198;2023-02-28T10:42:58;4.43;;;4.10;;
20727;SDS011;10525;50.154;8.198;2023-02-28T10:45:26;3.70;;;3.40;;
20727;SDS011;10525;50.154;8.198;2023-02-28T10:47:55;3.97;;;3.57;;
20727;SDS011;10525;50.154;8.198;2023-02-28T10:50:32;6.15;;;3.55;;
20727;SDS011;10525;50.154;8.198;2023-02-28T10:53:08;3.42;;;3.20;;
20727;SDS011;10525;50.154;8.198;2023-02-28T10:55:59;3.78;;;3.47;;
20727;SDS011;10525;50.154;8.198;2023-02-28T10:58:28;4.87;;;3.93;;
20727;SDS011;10525;50.154;8.198;2023-02-28T11:00:57;4.07;;;3.70;;
20727;SDS011;10525;50.154;8.198;2023-02-28T11:03:29;2.97;;;2.85;;
20727;SDS011;10525;50.154;8.198;2023-02-28T11:05:58;6.78;;;4.25;;
20727;SDS011;10525;50.154;8.198;2023-02-28T11:08:29;3.60;;;3.30;;
20727;SDS011;10525;50.154;8.198;2023-02-28T11:10:58;3.50;;;3.20;;
20727;SDS011;10525;50.154;8.198;2023-02-28T11:13:32;5.18;;;3.90;;
20727;SDS011;10525;50.154;8.198;2023-02-28T11:16:03;4.60;;;3.85;;
20727;SDS011;10525;50.154;8.198;2023-02-28T11:18:33;4.32;;;3.67;;
20727;SDS011;10525;50.154;8.198;2023-02-28T11:21:05;6.68;;;4.25;;
20727;SDS011;10525;50.154;8.198;2023-02-28T11:23:32;3.90;;;3.58;;
20727;SDS011;10525;50.154;8.198;2023-02-28T11:26:03;4.40;;;3.60;;
20727;SDS011;10525;50.154;8.198;2023-02-28T11:28:35;4.80;;;3.63;;
20727;SDS011;10525;50.154;8.198;2023-02-28T11:31:05;3.90;;;3.53;;
20727;SDS011;10525;50.154;8.198;2023-02-28T11:33:41;9.90;;;3.43;;
20727;SDS011;10525;50.154;8.198;2023-02-28T11:36:11;4.03;;;3.57;;
20727;SDS011;10525;50.154;8.198;2023-02-28T11:38:39;3.57;;;3.37;;
20727;SDS011;10525;50.154;8.198;2023-02-28T11:41:12;5.90;;;4.13;;
20727;SDS011;10525;50.154;8.198;2023-02-28T11:43:55;3.70;;;3.50;;
20727;SDS011;10525;50.154;8.198;2023-02-28T11:46:43;3.90;;;3.60;;
20727;SDS011;10525;50.154;8.198;2023-02-28T11:49:21;4.73;;;3.47;;
20727;SDS011;10525;50.154;8.198;2023-02-28T11:51:57;5.13;;;3.90;;
20727;SDS011;10525;50.154;8.198;2023-02-28T11:54:38;5.63;;;3.90;;
20727;SDS011;10525;50.154;8.198;2023-02-28T11:57:35;3.50;;;3.30;;
20727;SDS011;10525;50.154;8.198;2023-02-28T12:00:18;4.83;;;3.77;;
20727;SDS011;10525;50.154;8.198;2023-02-28T12:02:57;4.83;;;3.87;;
20727;SDS011;10525;50.154;8.198;2023-02-28T12:05:34;7.57;;;3.60;;
20727;SDS011;10525;50.154;8.198;2023-02-28T12:08:11;4.20;;;3.73;;
20727;SDS011;10525;50.154;8.198;2023-02-28T12:10:52;4.13;;;3.83;;
20727;SDS011;10525;50.154;8.198;2023-02-28T12:13:29;6.17;;;3.87;;
20727;SDS011;10525;50.154;8.198;2023-02-28T12:19:17;4.30;;;3.40;;
20727;SDS011;10525;50.154;8.198;2023-02-28T12:27:47;3.95;;;3.70;;
20727;SDS011;10525;50.154;8.198;2023-02-28T12:30:17;7.15;;;3.65;;
20727;SDS011;10525;50.154;8.198;2023-02-28T12:32:48;5.10;;;4.00;;
20727;SDS011;10525;50.154;8.198;2023-02-28T12:35:22;3.73;;;3.43;;
20727;SDS011;10525;50.154;8.198;2023-02-28T12:37:54;3.83;;;3.57;;
20727;SDS011;10525;50.154;8.198;2023-02-28T12:40:27;4.60;;;4.20;;
20727;SDS011;10525;50.154;8.198;2023-02-28T12:43:01;8.07;;;4.43;;
20727;SDS011;10525;50.154;8.198;2023-02-28T12:45:37;5.33;;;4.07;;
20727;SDS011;10525;50.154;8.198;2023-02-28T12:48:08;5.95;;;4.07;;
20727;SDS011;10525;50.154;8.198;2023-02-28T12:50:39;4.77;;;3.87;;
20727;SDS011;10525;50.154;8.198;2023-02-28T12:53:07;5.73;;;3.70;;
20727;SDS011;10525;50.154;8.198;2023-02-28T12:55:41;3.53;;;3.33;;
20727;SDS011;10525;50.154;8.198;2023-02-28T12:58:14;7.85;;;4.78;;
20727;SDS011;10525;50.154;8.198;2023-02-28T13:00:53;4.57;;;4.10;;
20727;SDS011;10525;50.154;8.198;2023-02-28T13:03:33;4.80;;;4.30;;
20727;SDS011;10525;50.154;8.198;2023-02-28T13:06:22;4.07;;;3.78;;
20727;SDS011;10525;50.154;8.198;2023-02-28T13:08:59;10.53;;;3.47;;
20727;SDS011;10525;50.154;8.198;2023-02-28T13:11:29;5.03;;;4.30;;
20727;SDS011;10525;50.154;8.198;2023-02-28T13:13:59;5.50;;;4.10;;
20727;SDS011;10525;50.154;8.198;2023-02-28T13:16:29;5.60;;;4.82;;
20727;SDS011;10525;50.154;8.198;2023-02-28T13:19:17;8.43;;;4.03;;
20727;SDS011;10525;50.154;8.198;2023-02-28T13:21:48;4.90;;;4.38;;
20727;SDS011;10525;50.154;8.198;2023-02-28T13:33:20;4.80;;;4.40;;
20727;SDS011;10525;50.154;8.198;2023-02-28T13:36:00;6.32;;;3.72;;
20727;SDS011;10525;50.154;8.198;2023-02-28T13:38:38;7.43;;;4.80;;
20727;SDS011;10525;50.154;8.198;2023-02-28T13:44:08;4.47;;;4.07;;
20727;SDS011;10525;50.154;8.198;2023-02-28T13:46:36;9.97;;;4.40;;
20727;SDS011;10525;50.154;8.198;2023-02-28T13:49:27;6.27;;;5.00;;
20727;SDS011;10525;50.154;8.198;2023-02-28T13:52:02;5.75;;;4.97;;
20727;SDS011;10525;50.154;8.198;2023-02-28T13:54:40;5.15;;;4.40;;
20727;SDS011;10525;50.154;8.198;2023-02-28T13:57:19;5.88;;;4.70;;
20727;SDS011;10525;50.154;8.198;2023-02-28T13:59:59;7.72;;;4.88;;
20727;SDS011;10525;50.154;8.198;2023-02-28T14:02:56;5.13;;;4.27;;
20727;SDS011;10525;50.154;8.198;2023-02-28T14:05:35;4.60;;;3.97;;
20727;SDS011;10525;50.154;8.198;2023-02-28T14:08:04;4.13;;;3.70;;
20727;SDS011;10525;50.154;8.198;2023-02-28T14:10:39;4.97;;;3.80;;
20727;SDS011;10525;50.154;8.198;2023-02-28T14:13:14;6.10;;;4.38;;
20727;SDS011;10525;50.154;8.198;2023-02-28T14:16:09;5.10;;;4.40;;
20727;SDS011;10525;50.154;8.198;2023-02-28T14:18:37;5.50;;;4.60;;
20727;SDS011;10525;50.154;8.198;2023-02-28T14:21:13;5.53;;;4.47;;
20727;SDS011;10525;50.154;8.198;2023-02-28T14:26:57;4.80;;;4.13;;
20727;SDS011;10525;50.154;8.198;2023-02-28T14:32:44;4.30;;;3.93;;
20727;SDS011;10525;50.154;8.198;2023-02-28T14:35:19;3.85;;;3.30;;
20727;SDS011;10525;50.154;8.198;2023-02-28T14:38:03;10.03;;;4.60;;
20727;SDS011;10525;50.154;8.198;2023-02-28T14:40:32;4.78;;;4.35;;
20727;SDS011;10525;50.154;8.198;2023-02-28T14:43:01;6.60;;;4.30;;
20727;SDS011;10525;50.154;8.198;2023-02-28T14:45:30;6.00;;;4.53;;
20727;SDS011;10525;50.154;8.198;2023-02-28T14:47:58;4.13;;;3.75;;
20727;SDS011;10525;50.154;8.198;2023-02-28T14:50:27;4.10;;;3.80;;
20727;SDS011;10525;50.154;8.198;2023-02-28T14:52:56;3.83;;;3.57;;
20727;SDS011;10525;50.154;8.198;2023-02-28T14:55:26;6.43;;;4.70;;
20727;SDS011;10525;50.154;8.198;2023-02-28T14:57:56;8.05;;;5.30;;
20727;SDS011;10525;50.154;8.198;2023-02-28T15:00:25;5.50;;;3.90;;
20727;SDS011;10525;50.154;8.198;2023-02-28T15:02:54;4.43;;;4.03;;
20727;SDS011;10525;50.154;8.198;2023-02-28T15:05:23;4.43;;;4.03;;
20727;SDS011;10525;50.154;8.198;2023-02-28T15:08:00;3.75;;;3.30;;
20727;SDS011;10525;50.154;8.198;2023-02-28T15:10:30;9.27;;;4.20;;
20727;SDS011;10525;50.154;8.198;2023-02-28T15:12:58;6.27;;;4.10;;
20727;SDS011;10525;50.154;8.198;2023-02-28T15:15:29;4.85;;;3.90;;
20727;SDS011;10525;50.154;8.198;2023-02-28T15:18:16;7.45;;;3.80;;
20727;SDS011;10525;50.154;8.198;2023-02-28T15:20:54;5.82;;;4.15;;
20727;SDS011;10525;50.154;8.198;2023-02-28T15:23:22;4.93;;;3.22;;
20727;SDS011;10525;50.154;8.198;2023-02-28T15:25:49;5.27;;;4.77;;
20727;SDS011;10525;50.154;8.198;2023-02-28T15:28:18;6.30;;;3.97;;
20727;SDS011;10525;50.154;8.198;2023-02-28T15:30:55;5.32;;;3.90;;
20727;SDS011;10525;50.154;8.198;2023-02-28T15:33:26;5.90;;;4.10;;
20727;SDS011;10525;50.154;8.198;2023-02-28T15:36:06;6.53;;;4.20;;
20727;SDS011;10525;50.154;8.198;2023-02-28T15:38:42;3.77;;;3.43;;
20727;SDS011;10525;50.154;8.198;2023-02-28T15:41:16;8.10;;;4.33;;
20727;SDS011;10525;50.154;8.198;2023-02-28T15:43:49;7.00;;;4.40;;
20727;SDS011;10525;50.154;8.198;2023-02-28T15:46:55;4.23;;;3.83;;